Time;durP1;ratioP1;P1;durP2;ratioP2;P2;SDS_P1;SDS_P2;PMS_P1;PMS_P2;Temp;Humidity;BMP_temperature;BMP_pressure;BME280_temperature;BME280_humidity;BME280_pressure;Samples;Min_cycle;Max_cycle;Signal;HPM_P1;HPM_P2
2022/01/08 00:02:04;;;;;;;19.92;9.07;;;;;;;;;;6272920;22;20079;-68
2022/01/08 00:04:30;;;;;;;22.20;9.25;;;;;;;;;;6271920;22;20075;-65
2022/01/08 00:06:56;;;;;;;23.10;10.98;;;;;;;;;;6272919;22;20042;-67
2022/01/08 00:09:22;;;;;;;18.23;7.60;;;;;;;;;;6271381;22;19996;-65
2022/01/08 00:11:49;;;;;;;30.48;8.57;;;;;;;;;;6272551;22;20008;-66
2022/01/08 00:14:15;;;;;;;17.17;6.70;;;;;;;;;;6272139;22;20027;-65
2022/01/08 00:16:42;;;;;;;25.13;8.48;;;;;;;;;;6271631;22;20075;-66
2022/01/08 00:19:08;;;;;;;18.17;6.55;;;;;;;;;;6271063;22;20015;-66
2022/01/08 00:21:34;;;;;;;19.00;7.70;;;;;;;;;;6272637;22;20411;-65
2022/01/08 00:24:01;;;;;;;18.50;7.20;;;;;;;;;;6271318;22;20023;-66
2022/01/08 00:26:27;;;;;;;21.20;7.65;;;;;;;;;;6272067;22;20004;-65
2022/01/08 00:28:53;;;;;;;21.63;6.07;;;;;;;;;;6271710;22;20007;-67
2022/01/08 00:31:19;;;;;;;17.17;5.68;;;;;;;;;;6270688;22;20330;-66
2022/01/08 00:33:47;;;;;;;18.90;6.13;;;;;;;;;;6272751;22;20457;-66
2022/01/08 00:36:13;;;;;;;22.27;7.05;;;;;;;;;;6271927;22;20457;-67
2022/01/08 00:38:39;;;;;;;18.10;6.88;;;;;;;;;;6272766;22;20007;-67
2022/01/08 00:41:05;;;;;;;19.02;5.88;;;;;;;;;;6271656;22;20015;-65
2022/01/08 00:43:32;;;;;;;19.00;5.70;;;;;;;;;;6269472;22;20008;-66
2022/01/08 00:45:58;;;;;;;15.73;6.18;;;;;;;;;;6271364;22;20004;-66
2022/01/08 00:48:24;;;;;;;26.70;6.57;;;;;;;;;;6271997;22;20095;-67
2022/01/08 00:50:52;;;;;;;16.15;4.82;;;;;;;;;;6272770;22;20015;-66
2022/01/08 00:53:19;;;;;;;14.88;5.82;;;;;;;;;;6271931;22;20053;-66
2022/01/08 00:55:45;;;;;;;14.88;5.32;;;;;;;;;;6272900;22;20338;-64
2022/01/08 00:58:11;;;;;;;13.55;4.78;;;;;;;;;;6270617;22;20006;-66
2022/01/08 01:00:37;;;;;;;12.60;5.68;;;;;;;;;;6270935;22;20079;-66
2022/01/08 01:03:03;;;;;;;15.75;5.72;;;;;;;;;;6270623;22;20000;-67
2022/01/08 01:05:30;;;;;;;24.05;5.45;;;;;;;;;;6272833;22;19999;-66
2022/01/08 01:07:56;;;;;;;15.07;6.00;;;;;;;;;;6271101;22;20088;-66
2022/01/08 01:10:22;;;;;;;20.67;5.93;;;;;;;;;;6272185;22;20002;-67
2022/01/08 01:12:48;;;;;;;16.88;6.00;;;;;;;;;;6271183;22;20003;-66
2022/01/08 01:15:16;;;;;;;15.02;5.75;;;;;;;;;;6272471;22;20061;-64
2022/01/08 01:17:43;;;;;;;12.30;5.03;;;;;;;;;;6271628;22;20078;-66
2022/01/08 01:20:10;;;;;;;19.45;5.18;;;;;;;;;;6271887;22;20523;-65
2022/01/08 01:22:46;;;;;;;19.98;5.15;;;;;;;;;;6271194;22;20027;-66
2022/01/08 01:25:17;;;;;;;20.52;6.85;;;;;;;;;;6272287;22;20079;-66
2022/01/08 01:41:53;;;;;;;28.58;7.68;;;;;;;;;;6271373;22;20014;-65
2022/01/08 01:47:02;;;;;;;19.55;5.10;;;;;;;;;;6271934;22;20019;-66
2022/01/08 01:49:39;;;;;;;18.80;4.80;;;;;;;;;;6271032;22;20049;-65
2022/01/08 01:52:06;;;;;;;13.93;4.28;;;;;;;;;;6271501;22;20059;-66
2022/01/08 01:54:33;;;;;;;13.93;4.07;;;;;;;;;;6271667;22;20015;-66
2022/01/08 01:57:00;;;;;;;13.90;4.43;;;;;;;;;;6271984;22;20003;-65
2022/01/08 01:59:26;;;;;;;15.55;4.47;;;;;;;;;;6271083;22;20042;-66
2022/01/08 02:01:52;;;;;;;16.98;4.93;;;;;;;;;;6267852;22;20000;-63
2022/01/08 02:04:18;;;;;;;10.35;4.07;;;;;;;;;;6269944;22;20099;-66
2022/01/08 02:06:45;;;;;;;15.00;5.03;;;;;;;;;;6271384;22;20413;-66
2022/01/08 02:09:11;;;;;;;18.13;5.60;;;;;;;;;;6271037;22;20049;-66
2022/01/08 02:11:56;;;;;;;7.93;3.67;;;;;;;;;;6272316;22;20000;-66
2022/01/08 02:14:22;;;;;;;20.88;4.90;;;;;;;;;;6270248;22;20018;-67
2022/01/08 02:16:48;;;;;;;19.95;4.60;;;;;;;;;;6271654;22;20438;-65
2022/01/08 02:19:14;;;;;;;11.50;4.38;;;;;;;;;;6270618;22;20035;-66
2022/01/08 02:21:45;;;;;;;16.35;4.45;;;;;;;;;;6273034;22;20004;-65
2022/01/08 02:24:11;;;;;;;11.75;3.83;;;;;;;;;;6271228;22;20134;-65
2022/01/08 02:26:37;;;;;;;13.95;4.80;;;;;;;;;;6271204;22;20003;-66
2022/01/08 02:29:03;;;;;;;11.20;4.47;;;;;;;;;;6272698;22;20326;-66
2022/01/08 02:31:30;;;;;;;14.55;3.92;;;;;;;;;;6273512;22;20062;-66
2022/01/08 02:33:56;;;;;;;11.85;5.15;;;;;;;;;;6271757;22;20000;-66
2022/01/08 02:36:22;;;;;;;16.27;4.55;;;;;;;;;;6272933;22;20042;-64
2022/01/08 02:38:49;;;;;;;5.97;3.75;;;;;;;;;;6272206;22;20362;-66
2022/01/08 02:41:16;;;;;;;11.90;4.28;;;;;;;;;;6269526;22;20528;-66
2022/01/08 02:43:45;;;;;;;15.05;4.50;;;;;;;;;;6271093;22;20070;-67
2022/01/08 02:46:12;;;;;;;14.15;4.32;;;;;;;;;;6269196;22;20102;-67
2022/01/08 02:48:39;;;;;;;11.95;4.88;;;;;;;;;;6270096;22;19999;-66
2022/01/08 02:51:05;;;;;;;9.82;3.95;;;;;;;;;;6271104;22;19992;-66
2022/01/08 02:53:31;;;;;;;7.57;3.38;;;;;;;;;;6270749;22;20003;-65
2022/01/08 02:55:57;;;;;;;9.23;3.00;;;;;;;;;;6270498;22;20315;-66
2022/01/08 02:58:26;;;;;;;12.43;5.72;;;;;;;;;;6271209;22;20079;-65
2022/01/08 03:00:52;;;;;;;11.85;3.72;;;;;;;;;;6269931;22;20007;-66
2022/01/08 03:03:18;;;;;;;11.25;3.35;;;;;;;;;;6269804;22;20011;-65
2022/01/08 03:05:44;;;;;;;9.32;3.15;;;;;;;;;;6269434;22;20015;-67
2022/01/08 03:08:10;;;;;;;8.13;3.42;;;;;;;;;;6271772;22;20081;-67
2022/01/08 03:10:36;;;;;;;8.35;3.78;;;;;;;;;;6272162;22;20015;-66
2022/01/08 03:13:04;;;;;;;11.65;4.18;;;;;;;;;;6273931;22;20077;-66
2022/01/08 03:15:33;;;;;;;13.02;3.65;;;;;;;;;;6270663;22;20021;-65
2022/01/08 03:17:59;;;;;;;11.20;4.50;;;;;;;;;;6271971;22;20450;-66
2022/01/08 03:20:25;;;;;;;10.25;3.10;;;;;;;;;;6272266;22;20012;-65
2022/01/08 03:22:52;;;;;;;7.55;2.83;;;;;;;;;;6270753;22;20312;-65
2022/01/08 03:25:18;;;;;;;8.45;2.83;;;;;;;;;;6273193;22;20047;-65
2022/01/08 03:27:44;;;;;;;7.63;3.20;;;;;;;;;;6273096;22;20615;-65
2022/01/08 03:30:12;;;;;;;6.78;2.85;;;;;;;;;;6272707;22;20807;-64
2022/01/08 03:32:38;;;;;;;7.90;3.47;;;;;;;;;;6271740;22;20000;-66
2022/01/08 03:35:05;;;;;;;6.47;3.33;;;;;;;;;;6272939;22;20008;-65
2022/01/08 03:37:31;;;;;;;13.13;3.28;;;;;;;;;;6273146;22;20007;-65
2022/01/08 03:39:57;;;;;;;8.48;2.90;;;;;;;;;;6272905;22;20079;-66
2022/01/08 03:42:23;;;;;;;10.20;2.83;;;;;;;;;;6272170;22;20418;-69
2022/01/08 03:44:49;;;;;;;8.35;3.03;;;;;;;;;;6272314;22;20311;-65
2022/01/08 03:49:54;;;;;;;8.63;3.35;;;;;;;;;;6282497;22;20620;-65
2022/01/08 03:52:20;;;;;;;8.70;2.85;;;;;;;;;;6272674;22;19999;-66
2022/01/08 03:54:46;;;;;;;11.13;3.22;;;;;;;;;;6271808;22;19999;-65
2022/01/08 03:57:12;;;;;;;6.65;2.75;;;;;;;;;;6270838;22;20011;-70
2022/01/08 03:59:38;;;;;;;9.57;2.67;;;;;;;;;;6272505;22;20006;-67
2022/01/08 04:02:05;;;;;;;9.13;2.92;;;;;;;;;;6271457;22;20457;-64
2022/01/08 04:04:31;;;;;;;6.45;2.47;;;;;;;;;;6272474;22;20007;-66
2022/01/08 04:06:57;;;;;;;6.63;3.13;;;;;;;;;;6272507;22;20011;-65
2022/01/08 04:09:23;;;;;;;8.98;3.03;;;;;;;;;;6272299;22;20006;-66
2022/01/08 04:11:50;;;;;;;5.82;3.05;;;;;;;;;;6271512;22;20008;-67
2022/01/08 04:14:18;;;;;;;9.60;2.90;;;;;;;;;;6272382;22;20049;-63
2022/01/08 04:16:47;;;;;;;8.27;3.15;;;;;;;;;;6273580;22;20620;-66
2022/01/08 04:19:13;;;;;;;9.35;2.90;;;;;;;;;;6271019;22;19999;-65
2022/01/08 04:24:38;;;;;;;8.63;2.60;;;;;;;;;;6205819;22;20015;-67
2022/01/08 04:27:04;;;;;;;6.80;2.20;;;;;;;;;;6272826;22;20031;-66
2022/01/08 04:29:30;;;;;;;4.50;2.25;;;;;;;;;;6271815;22;20058;-63
2022/01/08 04:31:56;;;;;;;4.75;2.13;;;;;;;;;;6271877;22;20000;-64
2022/01/08 04:34:22;;;;;;;5.50;2.63;;;;;;;;;;6272002;22;20433;-66
2022/01/08 04:36:48;;;;;;;8.82;2.75;;;;;;;;;;6272440;22;20003;-66
2022/01/08 04:39:14;;;;;;;5.45;2.60;;;;;;;;;;6272834;22;20007;-66
2022/01/08 04:41:43;;;;;;;8.38;2.85;;;;;;;;;;6272256;22;20003;-64
2022/01/08 04:44:10;;;;;;;4.32;2.28;;;;;;;;;;6271340;22;20008;-65
2022/01/08 04:46:38;;;;;;;4.38;2.00;;;;;;;;;;6272343;22;20004;-67
2022/01/08 04:49:04;;;;;;;5.20;2.47;;;;;;;;;;6272447;22;20000;-65
2022/01/08 04:51:30;;;;;;;3.22;1.88;;;;;;;;;;6272257;22;20054;-64
2022/01/08 04:53:57;;;;;;;7.80;2.13;;;;;;;;;;6271069;22;20373;-66
2022/01/08 04:56:23;;;;;;;4.90;2.03;;;;;;;;;;6271693;22;20071;-66
2022/01/08 04:58:49;;;;;;;3.90;2.00;;;;;;;;;;6273132;22;20000;-65
2022/01/08 05:01:15;;;;;;;3.78;1.88;;;;;;;;;;6270635;22;20657;-66
2022/01/08 05:03:41;;;;;;;5.38;2.45;;;;;;;;;;6272820;22;20087;-65
2022/01/08 05:06:07;;;;;;;5.97;2.20;;;;;;;;;;6271660;22;20010;-67
2022/01/08 05:08:34;;;;;;;5.25;2.00;;;;;;;;;;6273068;22;20020;-65
2022/01/08 05:11:00;;;;;;;6.40;2.65;;;;;;;;;;6271557;22;20027;-66
2022/01/08 05:13:26;;;;;;;5.93;2.30;;;;;;;;;;6270257;22;20004;-65
2022/01/08 05:15:52;;;;;;;3.92;1.80;;;;;;;;;;6271711;22;20007;-66
2022/01/08 05:18:18;;;;;;;5.47;2.55;;;;;;;;;;6271249;22;20000;-68
2022/01/08 05:20:53;;;;;;;7.75;2.35;;;;;;;;;;6271882;22;20084;-66
2022/01/08 05:23:19;;;;;;;6.15;2.47;;;;;;;;;;6272660;22;20011;-66
2022/01/08 05:25:45;;;;;;;3.42;2.00;;;;;;;;;;6270760;22;20095;-68
2022/01/08 05:28:11;;;;;;;3.60;1.90;;;;;;;;;;6272162;22;20067;-67
2022/01/08 05:30:37;;;;;;;2.78;1.80;;;;;;;;;;6271563;22;20007;-65
2022/01/08 05:33:03;;;;;;;3.63;1.80;;;;;;;;;;6270917;22;20006;-67
2022/01/08 05:35:30;;;;;;;3.33;1.90;;;;;;;;;;6271156;22;20004;-64
2022/01/08 05:37:56;;;;;;;2.88;1.60;;;;;;;;;;6271436;22;20043;-66
2022/01/08 05:40:23;;;;;;;2.35;1.95;;;;;;;;;;6272550;22;20008;-65
2022/01/08 05:42:49;;;;;;;2.70;1.50;;;;;;;;;;6271429;22;20004;-66
2022/01/08 05:45:15;;;;;;;2.28;1.65;;;;;;;;;;6272384;22;20334;-67
2022/01/08 05:47:41;;;;;;;2.15;1.65;;;;;;;;;;6271116;22;20442;-66
2022/01/08 05:50:08;;;;;;;5.15;1.95;;;;;;;;;;6272839;22;20006;-66
2022/01/08 05:52:34;;;;;;;3.63;1.50;;;;;;;;;;6271491;22;20000;-67
2022/01/08 05:55:00;;;;;;;5.63;2.00;;;;;;;;;;6275058;22;20007;-66
2022/01/08 05:57:26;;;;;;;4.57;1.90;;;;;;;;;;6273167;22;20006;-68
2022/01/08 05:59:53;;;;;;;2.30;1.70;;;;;;;;;;6272360;22;20011;-66
2022/01/08 06:02:19;;;;;;;1.90;1.73;;;;;;;;;;6271458;22;20004;-66
2022/01/08 06:04:45;;;;;;;3.83;1.80;;;;;;;;;;6271439;22;20029;-67
2022/01/08 06:07:11;;;;;;;4.03;1.80;;;;;;;;;;6271418;22;20004;-67
2022/01/08 06:09:37;;;;;;;1.60;1.50;;;;;;;;;;6272309;22;20000;-66
2022/01/08 06:12:03;;;;;;;3.05;1.60;;;;;;;;;;6271209;22;20004;-66
2022/01/08 06:14:29;;;;;;;4.47;1.83;;;;;;;;;;6271570;22;19996;-66
2022/01/08 06:16:55;;;;;;;2.92;1.58;;;;;;;;;;6270037;22;20012;-67
2022/01/08 06:19:21;;;;;;;2.42;1.30;;;;;;;;;;6271222;22;20422;-68
2022/01/08 06:21:48;;;;;;;4.72;1.67;;;;;;;;;;6270488;22;20004;-66
2022/01/08 06:24:14;;;;;;;3.03;1.55;;;;;;;;;;6271956;22;20331;-67
2022/01/08 06:26:40;;;;;;;2.28;1.60;;;;;;;;;;6271932;22;20004;-66
2022/01/08 06:29:06;;;;;;;2.35;1.52;;;;;;;;;;6272108;22;20000;-65
2022/01/08 06:31:32;;;;;;;1.70;1.48;;;;;;;;;;6271782;22;20072;-65
2022/01/08 06:33:58;;;;;;;2.47;1.42;;;;;;;;;;6271345;22;20334;-65
2022/01/08 06:36:24;;;;;;;3.38;1.70;;;;;;;;;;6272576;22;20441;-67
2022/01/08 06:38:51;;;;;;;1.40;1.30;;;;;;;;;;6270593;22;20003;-65
2022/01/08 06:41:17;;;;;;;1.88;1.50;;;;;;;;;;6272804;22;20007;-66
2022/01/08 06:43:43;;;;;;;4.30;1.55;;;;;;;;;;6272175;22;20422;-66
2022/01/08 06:46:09;;;;;;;1.35;1.25;;;;;;;;;;6273777;22;20029;-67
2022/01/08 06:48:35;;;;;;;3.05;2.63;;;;;;;;;;6272637;22;20010;-66
2022/01/08 06:51:02;;;;;;;3.30;1.70;;;;;;;;;;6272777;22;20007;-67
2022/01/08 06:53:28;;;;;;;1.63;1.52;;;;;;;;;;6272239;22;20545;-66
2022/01/08 06:55:54;;;;;;;1.45;1.38;;;;;;;;;;6272716;22;20015;-67
2022/01/08 06:58:21;;;;;;;3.25;1.70;;;;;;;;;;6273424;22;19999;-65
2022/01/08 07:00:47;;;;;;;2.47;1.67;;;;;;;;;;6273884;22;20004;-67
2022/01/08 07:03:14;;;;;;;3.97;1.80;;;;;;;;;;6273628;22;20423;-66
2022/01/08 07:05:40;;;;;;;5.60;1.55;;;;;;;;;;6272687;22;20361;-68
2022/01/08 07:08:06;;;;;;;4.53;1.75;;;;;;;;;;6272778;22;20008;-68
2022/01/08 07:10:33;;;;;;;6.07;2.33;;;;;;;;;;6272815;22;20003;-67
2022/01/08 07:13:00;;;;;;;7.05;3.10;;;;;;;;;;6273667;22;20053;-65
2022/01/08 07:15:26;;;;;;;15.10;3.28;;;;;;;;;;6272028;22;20008;-67
2022/01/08 07:17:52;;;;;;;11.23;3.10;;;;;;;;;;6273883;22;19999;-68
2022/01/08 07:20:18;;;;;;;13.10;4.82;;;;;;;;;;6273289;22;20000;-67
2022/01/08 07:22:44;;;;;;;11.85;3.72;;;;;;;;;;6273062;22;20014;-66
2022/01/08 07:25:11;;;;;;;13.55;4.85;;;;;;;;;;6273430;22;20023;-66
2022/01/08 07:27:37;;;;;;;14.60;4.00;;;;;;;;;;6271823;22;20034;-65
2022/01/08 07:30:05;;;;;;;11.95;4.03;;;;;;;;;;6273322;22;20074;-67
2022/01/08 07:32:31;;;;;;;11.45;4.63;;;;;;;;;;6272759;22;20245;-67
2022/01/08 07:34:57;;;;;;;17.55;4.07;;;;;;;;;;6272801;22;19995;-66
2022/01/08 07:37:23;;;;;;;13.30;4.25;;;;;;;;;;6272309;22;20000;-66
2022/01/08 07:39:49;;;;;;;13.50;4.70;;;;;;;;;;6273848;22;20067;-67
2022/01/08 07:42:15;;;;;;;14.80;4.50;;;;;;;;;;6272732;22;20430;-67
2022/01/08 07:44:42;;;;;;;17.20;5.43;;;;;;;;;;6273321;22;20000;-66
2022/01/08 07:47:08;;;;;;;20.00;5.53;;;;;;;;;;6271825;22;19995;-67
2022/01/08 07:49:34;;;;;;;26.88;5.22;;;;;;;;;;6273732;22;20000;-65
2022/01/08 07:52:00;;;;;;;17.08;5.50;;;;;;;;;;6271926;22;20334;-65
2022/01/08 07:54:27;;;;;;;18.85;5.68;;;;;;;;;;6272752;22;19996;-66
2022/01/08 07:56:53;;;;;;;27.95;7.43;;;;;;;;;;6272259;22;20007;-66
2022/01/08 07:59:19;;;;;;;21.23;4.60;;;;;;;;;;6272545;22;20004;-65
2022/01/08 08:01:45;;;;;;;21.90;5.97;;;;;;;;;;6272710;22;20018;-62
2022/01/08 08:04:11;;;;;;;28.33;5.53;;;;;;;;;;6273258;22;20082;-67
2022/01/08 08:06:49;;;;;;;25.42;7.30;;;;;;;;;;6272258;22;20012;-65
2022/01/08 08:09:16;;;;;;;25.25;7.72;;;;;;;;;;6273543;22;20007;-64
2022/01/08 08:11:42;;;;;;;24.90;6.68;;;;;;;;;;6271848;22;20003;-66
2022/01/08 08:14:08;;;;;;;32.95;7.82;;;;;;;;;;6270692;22;20007;-65
2022/01/08 08:16:34;;;;;;;33.78;7.45;;;;;;;;;;6271151;22;20015;-65
2022/01/08 08:19:00;;;;;;;27.52;6.97;;;;;;;;;;6273285;22;20003;-67
2022/01/08 08:21:26;;;;;;;27.48;7.50;;;;;;;;;;6272189;22;20010;-66
2022/01/08 08:23:53;;;;;;;24.38;6.65;;;;;;;;;;6272838;22;20450;-65
2022/01/08 08:26:19;;;;;;;23.15;7.35;;;;;;;;;;6272026;22;20000;-66
2022/01/08 08:28:45;;;;;;;25.02;5.18;;;;;;;;;;6271752;22;20016;-65
2022/01/08 08:31:11;;;;;;;20.95;6.93;;;;;;;;;;6270583;22;20433;-64
2022/01/08 08:33:38;;;;;;;20.48;6.57;;;;;;;;;;6272083;22;20006;-67
2022/01/08 08:36:04;;;;;;;27.65;7.20;;;;;;;;;;6272680;22;20011;-65
2022/01/08 08:38:30;;;;;;;25.55;6.45;;;;;;;;;;6272383;22;20386;-65
2022/01/08 08:40:56;;;;;;;20.83;6.25;;;;;;;;;;6272281;22;20015;-65
2022/01/08 08:43:23;;;;;;;32.90;6.95;;;;;;;;;;6272955;22;20036;-66
2022/01/08 08:45:49;;;;;;;28.50;6.28;;;;;;;;;;6273068;22;20008;-66
2022/01/08 08:48:15;;;;;;;22.38;5.63;;;;;;;;;;6272007;22;19996;-68
2022/01/08 08:50:42;;;;;;;24.42;7.43;;;;;;;;;;6272781;22;20011;-65
2022/01/08 08:53:08;;;;;;;30.55;6.88;;;;;;;;;;6271805;22;19996;-65
2022/01/08 08:55:34;;;;;;;28.00;5.93;;;;;;;;;;6272371;22;20023;-66
2022/01/08 08:58:00;;;;;;;26.75;6.50;;;;;;;;;;6272624;22;20011;-66
2022/01/08 09:00:26;;;;;;;25.67;8.32;;;;;;;;;;6271906;22;19999;-64
2022/01/08 09:02:52;;;;;;;21.67;6.60;;;;;;;;;;6271743;22;20007;-63
2022/01/08 09:05:18;;;;;;;27.40;8.23;;;;;;;;;;6272400;22;20061;-63
2022/01/08 09:07:45;;;;;;;21.80;6.13;;;;;;;;;;6271715;22;20006;-67
2022/01/08 09:10:11;;;;;;;23.70;6.47;;;;;;;;;;6270583;22;20062;-66
2022/01/08 09:12:38;;;;;;;25.35;7.38;;;;;;;;;;6271952;22;20006;-65
2022/01/08 09:15:05;;;;;;;29.23;5.85;;;;;;;;;;6271055;22;20373;-66
2022/01/08 09:17:32;;;;;;;32.53;8.07;;;;;;;;;;6271763;22;20000;-67
2022/01/08 09:19:58;;;;;;;25.55;6.85;;;;;;;;;;6272229;22;20027;-67
2022/01/08 09:22:25;;;;;;;26.00;7.20;;;;;;;;;;6272399;22;20370;-66
2022/01/08 09:24:53;;;;;;;20.10;6.38;;;;;;;;;;6271480;22;20003;-64
2022/01/08 09:27:19;;;;;;;21.75;5.50;;;;;;;;;;6271610;22;20019;-66
2022/01/08 09:29:45;;;;;;;31.40;6.75;;;;;;;;;;6271014;22;20008;-67
2022/01/08 09:32:12;;;;;;;32.47;7.03;;;;;;;;;;6272026;22;20007;-66
2022/01/08 09:34:38;;;;;;;19.38;5.85;;;;;;;;;;6270816;22;20369;-64
2022/01/08 09:37:05;;;;;;;30.30;6.85;;;;;;;;;;6272704;22;20000;-65
2022/01/08 09:39:31;;;;;;;24.00;5.78;;;;;;;;;;6269370;22;20361;-65
2022/01/08 09:41:57;;;;;;;22.58;6.93;;;;;;;;;;6272703;22;20079;-67
2022/01/08 09:44:24;;;;;;;24.88;6.90;;;;;;;;;;6270768;22;20073;-66
2022/01/08 09:46:50;;;;;;;23.38;7.38;;;;;;;;;;6272918;22;20059;-68
2022/01/08 09:49:16;;;;;;;26.65;7.45;;;;;;;;;;6272102;22;20166;-67
2022/01/08 09:51:42;;;;;;;26.17;6.95;;;;;;;;;;6272575;22;20130;-72
2022/01/08 09:54:08;;;;;;;32.05;8.43;;;;;;;;;;6272159;22;20006;-66
2022/01/08 09:56:34;;;;;;;29.48;7.90;;;;;;;;;;6271342;22;20004;-66
2022/01/08 09:59:01;;;;;;;35.50;8.60;;;;;;;;;;6271094;22;20026;-66
2022/01/08 10:01:28;;;;;;;30.98;7.10;;;;;;;;;;6271689;22;20008;-67
2022/01/08 10:03:55;;;;;;;36.20;7.85;;;;;;;;;;6271715;22;20536;-67
2022/01/08 10:06:22;;;;;;;29.10;11.20;;;;;;;;;;6271052;22;20306;-66
2022/01/08 10:08:49;;;;;;;30.85;8.75;;;;;;;;;;6271434;22;20000;-64
2022/01/08 10:11:16;;;;;;;31.98;7.32;;;;;;;;;;6272005;22;20027;-67
2022/01/08 10:13:43;;;;;;;33.60;7.53;;;;;;;;;;6271974;22;19996;-67
2022/01/08 10:19:24;;;;;;;31.02;9.27;;;;;;;;;;6274479;22;20022;-66
2022/01/08 10:21:52;;;;;;;32.95;7.45;;;;;;;;;;6273188;22;20011;-65
2022/01/08 10:24:20;;;;;;;28.70;7.72;;;;;;;;;;6274855;22;20329;-66
2022/01/08 10:26:46;;;;;;;28.48;8.80;;;;;;;;;;6274045;22;20097;-65
2022/01/08 10:29:22;;;;;;;35.67;10.07;;;;;;;;;;6274149;22;20019;-65
2022/01/08 10:31:52;;;;;;;46.50;10.85;;;;;;;;;;6274472;22;20062;-65
2022/01/08 10:34:22;;;;;;;28.45;9.65;;;;;;;;;;6274004;22;20030;-66
2022/01/08 10:36:49;;;;;;;36.75;10.88;;;;;;;;;;6274054;22;20003;-65
2022/01/08 10:39:21;;;;;;;40.08;11.32;;;;;;;;;;6274052;22;20007;-65
2022/01/08 10:41:49;;;;;;;31.83;10.02;;;;;;;;;;6272585;22;20010;-65
2022/01/08 10:44:16;;;;;;;28.88;8.52;;;;;;;;;;6274349;22;20003;-64
2022/01/08 10:46:57;;;;;;;30.45;8.00;;;;;;;;;;6273754;22;20322;-67
2022/01/08 10:49:47;;;;;;;23.27;7.22;;;;;;;;;;6272949;22;20003;-65
2022/01/08 10:52:17;;;;;;;33.83;6.93;;;;;;;;;;6262667;22;20004;-66
2022/01/08 10:54:46;;;;;;;23.08;6.78;;;;;;;;;;6271907;22;20050;-66
2022/01/08 10:57:14;;;;;;;22.75;7.15;;;;;;;;;;6272509;22;20032;-66
2022/01/08 10:59:40;;;;;;;29.88;8.10;;;;;;;;;;6273058;22;20004;-66
2022/01/08 11:02:10;;;;;;;27.75;8.00;;;;;;;;;;6273918;22;20075;-65
2022/01/08 11:04:41;;;;;;;25.75;6.90;;;;;;;;;;6273775;22;20074;-65
2022/01/08 11:07:12;;;;;;;24.95;6.72;;;;;;;;;;6274163;22;20004;-67
2022/01/08 11:09:39;;;;;;;24.08;6.22;;;;;;;;;;6273761;22;20050;-65
2022/01/08 11:12:07;;;;;;;19.60;6.13;;;;;;;;;;6273030;22;20003;-67
2022/01/08 11:17:18;;;;;;;24.17;6.43;;;;;;;;;;6284340;22;20438;-66
2022/01/08 11:19:46;;;;;;;21.40;7.30;;;;;;;;;;6272928;22;20027;-64
2022/01/08 11:22:13;;;;;;;16.65;5.78;;;;;;;;;;6273883;22;20011;-65
2022/01/08 11:24:44;;;;;;;18.23;5.80;;;;;;;;;;6272498;22;20003;-67
2022/01/08 11:27:11;;;;;;;19.27;6.20;;;;;;;;;;6271915;22;20294;-64
2022/01/08 11:29:39;;;;;;;16.80;5.28;;;;;;;;;;6270871;22;20057;-66
2022/01/08 11:32:06;;;;;;;18.10;5.38;;;;;;;;;;6273346;22;20303;-66
2022/01/08 11:34:32;;;;;;;17.35;5.47;;;;;;;;;;6272920;22;20026;-66
2022/01/08 11:36:59;;;;;;;18.60;6.45;;;;;;;;;;6273658;22;20000;-68
2022/01/08 11:39:27;;;;;;;15.55;5.25;;;;;;;;;;6270590;22;20004;-68
2022/01/08 11:41:55;;;;;;;22.27;6.07;;;;;;;;;;6273018;22;20727;-66
2022/01/08 11:44:22;;;;;;;22.20;6.18;;;;;;;;;;6272729;22;20011;-67
2022/01/08 11:46:48;;;;;;;14.93;4.55;;;;;;;;;;6273225;22;20422;-67
2022/01/08 11:49:15;;;;;;;17.55;5.00;;;;;;;;;;6269429;22;20066;-67
2022/01/08 11:51:41;;;;;;;21.10;5.78;;;;;;;;;;6266765;22;20011;-65
2022/01/08 11:54:07;;;;;;;18.58;5.80;;;;;;;;;;6267112;22;20007;-65
2022/01/08 11:56:36;;;;;;;20.35;6.65;;;;;;;;;;6265988;22;20050;-66
2022/01/08 11:59:09;;;;;;;16.23;6.18;;;;;;;;;;6266168;22;20011;-64
2022/01/08 12:01:43;;;;;;;19.33;5.40;;;;;;;;;;6268306;22;20479;-66
2022/01/08 12:04:24;;;;;;;21.00;4.88;;;;;;;;;;6268334;22;20405;-66
2022/01/08 12:06:50;;;;;;;15.88;5.88;;;;;;;;;;6265634;22;20396;-64
2022/01/08 12:09:21;;;;;;;13.32;5.32;;;;;;;;;;6267508;22;20513;-68
2022/01/08 12:11:48;;;;;;;13.10;4.65;;;;;;;;;;6265759;22;20018;-66
2022/01/08 12:14:28;;;;;;;12.30;4.93;;;;;;;;;;6266842;22;20501;-68
2022/01/08 12:16:56;;;;;;;9.63;4.13;;;;;;;;;;6265638;22;20007;-69
2022/01/08 12:19:31;;;;;;;15.40;5.18;;;;;;;;;;6266065;22;20428;-68
2022/01/08 12:21:58;;;;;;;;;;;;;;;;;;6266363;22;20004;-70
2022/01/08 12:24:28;;;;;;;14.02;6.22;;;;;;;;;;6267544;22;20455;-65
2022/01/08 12:26:59;;;;;;;11.98;4.10;;;;;;;;;;6269757;22;20007;-69
2022/01/08 12:29:33;;;;;;;16.48;4.90;;;;;;;;;;6268655;22;20181;-67
2022/01/08 12:32:28;;;;;;;16.23;5.72;;;;;;;;;;6264056;22;20007;-67
2022/01/08 12:35:01;;;;;;;15.20;4.40;;;;;;;;;;6258508;22;20007;-68
2022/01/08 12:37:39;;;;;;;11.73;3.28;;;;;;;;;;6266715;22;20134;-67
2022/01/08 12:40:07;;;;;;;14.68;3.95;;;;;;;;;;6266720;22;20057;-70
2022/01/08 12:42:34;;;;;;;22.15;5.40;;;;;;;;;;6267218;22;20074;-64
2022/01/08 12:45:14;;;;;;;10.30;4.18;;;;;;;;;;6266130;22;20482;-67
2022/01/08 12:47:46;;;;;;;16.35;5.30;;;;;;;;;;6265836;22;20027;-67
2022/01/08 12:50:36;;;;;;;9.68;3.42;;;;;;;;;;6266216;22;20024;-68
2022/01/08 12:53:06;;;;;;;12.77;3.83;;;;;;;;;;6253432;22;20008;-69
2022/01/08 12:55:32;;;;;;;12.00;4.20;;;;;;;;;;6267221;22;20007;-66
2022/01/08 12:57:58;;;;;;;10.82;4.22;;;;;;;;;;6266612;22;20015;-66
2022/01/08 13:00:25;;;;;;;12.35;5.38;;;;;;;;;;6266582;22;20006;-65
2022/01/08 13:02:52;;;;;;;13.80;3.85;;;;;;;;;;6265585;22;20014;-65
2022/01/08 13:05:18;;;;;;;11.35;4.03;;;;;;;;;;6266956;22;20007;-64
2022/01/08 13:07:48;;;;;;;10.63;3.20;;;;;;;;;;6265858;22;20011;-65
2022/01/08 13:10:16;;;;;;;9.60;3.00;;;;;;;;;;6267060;22;20497;-66
2022/01/08 13:12:42;;;;;;;12.23;2.97;;;;;;;;;;6265517;22;20011;-65
2022/01/08 13:15:08;;;;;;;16.80;3.70;;;;;;;;;;6265963;22;20064;-65
2022/01/08 13:17:34;;;;;;;8.38;2.55;;;;;;;;;;6266610;22;20000;-64
2022/01/08 13:20:04;;;;;;;10.98;4.28;;;;;;;;;;6265816;22;20442;-66
2022/01/08 13:22:31;;;;;;;7.13;2.85;;;;;;;;;;6266121;22;20001;-64
2022/01/08 13:24:58;;;;;;;7.60;2.72;;;;;;;;;;6266394;22;20003;-65
2022/01/08 13:27:24;;;;;;;7.45;2.60;;;;;;;;;;6265566;22;20717;-65
2022/01/08 13:29:51;;;;;;;5.22;2.63;;;;;;;;;;6264988;22;20000;-65
2022/01/08 13:32:19;;;;;;;10.27;2.83;;;;;;;;;;6267574;22;20000;-67
2022/01/08 13:34:52;;;;;;;8.30;3.22;;;;;;;;;;6267062;22;20015;-66
2022/01/08 13:37:26;;;;;;;7.80;3.58;;;;;;;;;;6267454;22;20438;-67
2022/01/08 13:39:55;;;;;;;5.38;2.85;;;;;;;;;;6267023;22;20019;-66
2022/01/08 13:42:30;;;;;;;6.95;2.72;;;;;;;;;;6267602;22;20522;-67
2022/01/08 13:44:58;;;;;;;7.60;2.88;;;;;;;;;;6267480;22;20008;-66
2022/01/08 13:47:26;;;;;;;10.68;2.63;;;;;;;;;;6266367;22;20385;-65
2022/01/08 13:49:54;;;;;;;5.13;3.08;;;;;;;;;;6266893;22;20006;-65
2022/01/08 13:52:28;;;;;;;18.02;3.05;;;;;;;;;;6267657;22;20709;-66
2022/01/08 13:55:10;;;;;;;6.60;3.03;;;;;;;;;;6267120;22;20007;-64
2022/01/08 13:57:36;;;;;;;6.55;3.08;;;;;;;;;;6266292;22;20042;-64
2022/01/08 14:00:17;;;;;;;9.82;3.00;;;;;;;;;;6265495;22;20083;-65
2022/01/08 14:02:43;;;;;;;8.65;3.20;;;;;;;;;;6266953;22;20007;-64
2022/01/08 14:05:10;;;;;;;8.07;3.35;;;;;;;;;;6266240;22;20000;-67
2022/01/08 14:07:41;;;;;;;12.43;5.82;;;;;;;;;;6267364;22;20830;-65
2022/01/08 14:10:07;;;;;;;16.98;8.98;;;;;;;;;;6267042;22;20080;-64
2022/01/08 14:12:33;;;;;;;13.35;7.38;;;;;;;;;;6267016;22;20193;-64
2022/01/08 14:15:04;;;;;;;13.05;4.00;;;;;;;;;;6265263;22;20078;-66
2022/01/08 14:17:30;;;;;;;7.50;3.42;;;;;;;;;;6266892;22;20000;-65
2022/01/08 14:20:00;;;;;;;9.10;3.72;;;;;;;;;;6266070;22;20027;-67
2022/01/08 14:22:27;;;;;;;8.27;3.30;;;;;;;;;;6266311;22;20042;-64
2022/01/08 14:24:54;;;;;;;10.38;3.38;;;;;;;;;;6265042;22;20000;-64
2022/01/08 14:27:22;;;;;;;48.88;17.33;;;;;;;;;;6266982;22;20068;-69
2022/01/08 14:30:16;;;;;;;16.40;6.55;;;;;;;;;;6265304;22;20099;-66
2022/01/08 14:32:42;;;;;;;12.35;5.63;;;;;;;;;;6261392;22;20875;-65
2022/01/08 14:35:09;;;;;;;7.13;3.70;;;;;;;;;;6267134;22;20056;-64
2022/01/08 14:37:38;;;;;;;6.30;3.30;;;;;;;;;;6266493;22;20837;-65
2022/01/08 14:40:16;;;;;;;9.63;3.67;;;;;;;;;;6266409;22;20031;-65
2022/01/08 14:42:42;;;;;;;9.13;3.22;;;;;;;;;;6266397;22;20422;-65
2022/01/08 14:45:08;;;;;;;14.90;3.38;;;;;;;;;;6266424;22;20003;-64
2022/01/08 14:47:37;;;;;;;8.27;2.42;;;;;;;;;;6267362;22;20331;-64
2022/01/08 14:50:07;;;;;;;8.45;3.50;;;;;;;;;;6266015;22;20039;-65
2022/01/08 14:52:34;;;;;;;5.50;2.22;;;;;;;;;;6266820;22;20000;-65
2022/01/08 14:55:00;;;;;;;7.35;2.42;;;;;;;;;;6266822;22;20465;-63
2022/01/08 14:57:26;;;;;;;6.93;2.85;;;;;;;;;;6265619;22;20085;-64
2022/01/08 14:59:52;;;;;;;13.00;4.82;;;;;;;;;;6265569;22;20000;-64
2022/01/08 15:02:18;;;;;;;14.07;5.15;;;;;;;;;;6266827;22;20010;-64
2022/01/08 15:04:44;;;;;;;28.33;15.98;;;;;;;;;;6267388;22;20000;-66